Time;durP1;ratioP1;P1;durP2;ratioP2;P2;SDS_P1;SDS_P2;PMS_P1;PMS_P2;Temp;Humidity;BMP_temperature;BMP_pressure;BME280_temperature;BME280_humidity;BME280_pressure;Samples;Min_cycle;Max_cycle;Signal;HPM_P1;HPM_P2
2021/07/02 00:00:22;;;;;;;10.53;6.23;;;15.90;98.10;;;;;;5132132;27;20480;-71
2021/07/02 00:02:49;;;;;;;10.40;8.40;;;15.90;97.90;;;;;;5133743;27;20479;-69
2021/07/02 00:05:16;;;;;;;8.10;7.13;;;15.90;98.20;;;;;;5114195;28;20438;-69
2021/07/02 00:07:43;;;;;;;13.50;9.33;;;15.90;98.00;;;;;;5113105;28;20440;-69
2021/07/02 00:10:12;;;;;;;10.40;8.20;;;15.90;98.30;;;;;;5130281;27;20434;-69
2021/07/02 00:12:39;;;;;;;11.80;6.90;;;15.90;98.40;;;;;;5133619;27;20922;-69
2021/07/02 00:15:08;;;;;;;8.07;6.70;;;15.90;98.30;;;;;;5115808;28;20454;-69
2021/07/02 00:17:35;;;;;;;8.63;7.73;;;15.90;98.30;;;;;;5112900;28;20430;-68
2021/07/02 00:20:02;;;;;;;12.30;8.40;;;15.80;98.20;;;;;;5128656;28;20476;-69
2021/07/02 00:22:29;;;;;;;15.77;6.90;;;15.80;98.40;;;;;;5133418;28;20987;-69
2021/07/02 00:24:56;;;;;;;9.57;6.93;;;15.90;98.50;;;;;;5117392;28;20430;-68
2021/07/02 00:27:23;;;;;;;8.13;6.50;;;15.90;98.60;;;;;;5112459;28;20466;-68
2021/07/02 00:29:50;;;;;;;9.87;7.60;;;15.90;98.70;;;;;;5126801;28;20440;-70
2021/07/02 00:32:18;;;;;;;9.43;7.10;;;15.90;98.50;;;;;;5133437;28;20472;-70
2021/07/02 00:34:46;;;;;;;10.80;7.13;;;15.90;98.60;;;;;;5133646;28;20834;-68
2021/07/02 00:37:24;;;;;;;8.73;6.87;;;15.90;98.40;;;;;;5133863;28;20429;-69
2021/07/02 00:39:54;;;;;;;7.40;6.27;;;15.90;98.40;;;;;;5132574;28;20556;-70
2021/07/02 00:42:24;;;;;;;7.70;6.77;;;15.80;98.40;;;;;;5134331;28;21010;-69
2021/07/02 00:45:06;;;;;;;8.67;7.07;;;15.80;98.30;;;;;;5132733;28;20464;-69
2021/07/02 00:47:43;;;;;;;8.30;6.23;;;15.70;98.60;;;;;;5116422;28;20826;-69
2021/07/02 00:50:25;;;;;;;6.93;5.57;;;15.70;98.70;;;;;;5117565;28;20466;-70
2021/07/02 00:52:57;;;;;;;9.13;6.70;;;15.70;98.70;;;;;;5118064;28;20460;-70
2021/07/02 00:55:29;;;;;;;7.53;6.37;;;15.70;98.80;;;;;;5118026;28;20481;-69
2021/07/02 00:58:01;;;;;;;9.40;7.17;;;15.70;98.80;;;;;;5117444;28;20477;-70
2021/07/02 01:00:28;;;;;;;8.83;7.33;;;15.70;98.90;;;;;;5116753;28;20488;-69
2021/07/02 01:03:07;;;;;;;9.83;7.33;;;15.70;98.90;;;;;;5135161;27;20433;-69
2021/07/02 01:05:40;;;;;;;10.23;6.87;;;15.70;99.00;;;;;;5133998;27;20452;-68
2021/07/02 01:08:16;;;;;;;8.60;7.40;;;15.70;98.90;;;;;;5116520;28;20491;-68
2021/07/02 01:10:43;;;;;;;8.23;6.60;;;15.70;98.80;;;;;;5120295;27;20525;-69
2021/07/02 01:13:18;;;;;;;10.63;7.10;;;15.70;98.70;;;;;;5137743;27;20436;-69
2021/07/02 01:15:51;;;;;;;9.90;7.70;;;15.70;98.80;;;;;;5137513;27;20440;-69
2021/07/02 01:18:23;;;;;;;10.27;7.10;;;15.70;98.90;;;;;;5137882;27;20857;-69
2021/07/02 01:20:53;;;;;;;9.13;7.37;;;15.60;99.00;;;;;;5137320;27;20480;-68
2021/07/02 01:23:20;;;;;;;10.80;7.70;;;15.70;99.10;;;;;;5137112;27;20512;-68
2021/07/02 01:25:47;;;;;;;10.27;8.20;;;15.70;99.10;;;;;;5131466;27;20516;-68
2021/07/02 01:28:15;;;;;;;7.33;6.53;;;15.70;99.10;;;;;;5116046;28;20752;-68
2021/07/02 01:30:42;;;;;;;10.07;7.40;;;15.70;99.20;;;;;;5116094;27;20500;-68
2021/07/02 01:33:09;;;;;;;11.60;7.90;;;15.70;99.00;;;;;;5115987;28;20516;-69
2021/07/02 01:35:36;;;;;;;8.87;7.40;;;15.70;99.00;;;;;;5118207;27;20521;-68
2021/07/02 01:38:05;;;;;;;11.00;7.90;;;15.70;98.60;;;;;;5136620;27;20786;-69
2021/07/02 01:40:32;;;;;;;10.30;8.40;;;15.70;98.80;;;;;;5125774;27;20590;-69
2021/07/02 01:42:59;;;;;;;10.67;8.30;;;15.60;98.90;;;;;;5115690;28;20506;-69
2021/07/02 01:45:28;;;;;;;8.83;7.50;;;15.60;99.00;;;;;;5127053;27;20510;-68
2021/07/02 01:47:56;;;;;;;8.20;7.30;;;15.70;99.10;;;;;;5136498;27;20437;-68
2021/07/02 01:50:25;;;;;;;10.43;9.23;;;15.60;98.90;;;;;;5124151;27;20430;-68
2021/07/02 01:52:53;;;;;;;12.17;7.57;;;15.60;98.90;;;;;;5115720;27;20442;-68
2021/07/02 01:55:23;;;;;;;8.50;7.57;;;15.50;99.10;;;;;;5116261;27;20980;-69
2021/07/02 01:57:52;;;;;;;7.90;7.03;;;15.30;99.30;;;;;;5094749;28;20435;-68
2021/07/02 02:00:24;;;;;;;11.80;7.30;;;15.30;99.60;;;;;;5095103;28;20482;-68
2021/07/02 02:02:51;;;;;;;7.60;6.70;;;15.30;99.70;;;;;;5095564;28;20816;-68
2021/07/02 02:05:18;;;;;;;9.53;7.43;;;15.30;99.50;;;;;;5115808;27;20446;-68
2021/07/02 02:07:45;;;;;;;8.77;6.87;;;15.30;99.30;;;;;;5135193;27;20456;-69
2021/07/02 02:10:12;;;;;;;10.37;7.97;;;15.20;99.50;;;;;;5116870;27;20816;-68
2021/07/02 02:12:41;;;;;;;11.03;6.90;;;15.20;99.40;;;;;;5115243;28;20487;-69
2021/07/02 02:15:09;;;;;;;7.63;6.47;;;15.10;99.50;;;;;;5132219;27;20461;-68
2021/07/02 02:17:36;;;;;;;14.50;7.00;;;15.10;99.70;;;;;;5119871;27;20479;-68
2021/07/02 02:20:07;;;;;;;8.57;6.47;;;15.10;99.70;;;;;;5114941;28;20481;-68
2021/07/02 02:22:34;;;;;;;8.90;7.40;;;15.10;99.70;;;;;;5115128;27;20460;-69
2021/07/02 02:25:02;;;;;;;13.30;7.33;;;15.00;99.80;;;;;;5115128;28;20438;-68
2021/07/02 02:27:34;;;;;;;10.57;7.90;;;15.00;99.90;;;;;;5115809;27;20844;-68
2021/07/02 02:30:04;;;;;;;10.90;7.40;;;15.00;99.90;;;;;;5114967;28;20975;-69
2021/07/02 02:32:31;;;;;;;9.80;7.93;;;15.00;99.90;;;;;;5131116;27;20433;-69
2021/07/02 02:35:03;;;;;;;13.20;7.80;;;15.00;99.90;;;;;;5135479;27;20482;-69
2021/07/02 02:37:31;;;;;;;10.17;6.90;;;15.00;99.80;;;;;;5117899;27;20430;-68
2021/07/02 02:40:04;;;;;;;15.00;7.20;;;15.00;99.80;;;;;;5114540;28;20481;-68
2021/07/02 02:42:31;;;;;;;8.70;7.57;;;15.00;99.80;;;;;;5131092;27;20437;-68
2021/07/02 02:44:58;;;;;;;7.97;6.90;;;15.00;99.60;;;;;;5135195;27;20425;-68
2021/07/02 02:47:26;;;;;;;8.87;6.27;;;15.00;99.70;;;;;;5116595;27;20937;-68
2021/07/02 02:49:53;;;;;;;11.53;7.83;;;15.10;99.70;;;;;;5114646;28;20430;-68
2021/07/02 02:52:21;;;;;;;10.83;7.70;;;15.00;99.50;;;;;;5131107;27;20438;-68
2021/07/02 02:54:48;;;;;;;9.03;6.13;;;15.10;99.60;;;;;;5134935;27;20425;-68
2021/07/02 02:57:14;;;;;;;10.80;7.67;;;15.00;99.40;;;;;;5117834;27;20434;-69
2021/07/02 02:59:42;;;;;;;8.00;6.50;;;15.00;99.50;;;;;;5114298;28;20560;-68
2021/07/02 03:02:09;;;;;;;9.60;6.77;;;15.10;99.40;;;;;;5128847;27;20437;-70
2021/07/02 03:04:38;;;;;;;7.23;5.80;;;15.10;99.20;;;;;;5134876;27;20429;-68
2021/07/02 03:07:05;;;;;;;7.50;6.43;;;15.00;99.10;;;;;;5119825;27;20480;-68
2021/07/02 03:09:33;;;;;;;9.27;7.73;;;15.00;99.00;;;;;;5113162;28;20951;-69
2021/07/02 03:12:00;;;;;;;12.77;8.00;;;15.00;98.80;;;;;;5127178;27;20458;-69
2021/07/02 03:14:28;;;;;;;9.73;7.67;;;14.90;98.90;;;;;;5134385;27;20471;-69
2021/07/02 03:16:56;;;;;;;9.23;8.00;;;14.90;99.10;;;;;;5121035;27;20504;-69
2021/07/02 03:19:24;;;;;;;9.00;7.10;;;14.90;99.10;;;;;;5114121;28;20947;-68
2021/07/02 03:21:52;;;;;;;12.47;7.50;;;14.90;99.30;;;;;;5125286;27;20445;-68
2021/07/02 03:24:19;;;;;;;10.27;7.63;;;14.90;99.20;;;;;;5134562;27;20434;-68
2021/07/02 03:26:46;;;;;;;10.13;8.03;;;14.80;99.20;;;;;;5122354;27;20441;-68
2021/07/02 03:29:14;;;;;;;9.60;7.50;;;14.80;99.30;;;;;;5113671;28;20483;-69
2021/07/02 03:31:41;;;;;;;13.37;7.90;;;14.80;99.30;;;;;;5114476;27;20785;-68
2021/07/02 03:34:08;;;;;;;8.67;6.80;;;14.80;99.40;;;;;;5113548;28;20445;-68
2021/07/02 03:36:35;;;;;;;9.57;7.47;;;14.70;99.30;;;;;;5123064;27;20885;-68
2021/07/02 03:39:04;;;;;;;10.50;8.10;;;14.70;99.40;;;;;;5134136;27;20426;-68
2021/07/02 03:41:33;;;;;;;9.90;7.63;;;14.70;99.30;;;;;;5124910;27;20492;-69
2021/07/02 03:44:00;;;;;;;8.83;7.93;;;14.70;99.10;;;;;;5113361;28;20517;-68
2021/07/02 03:46:27;;;;;;;8.53;7.20;;;14.70;99.20;;;;;;5121757;27;20852;-68
2021/07/02 03:48:57;;;;;;;9.30;7.23;;;14.70;99.50;;;;;;5133954;27;20845;-72
2021/07/02 03:51:25;;;;;;;10.10;7.80;;;14.80;99.50;;;;;;5132171;27;20437;-68
2021/07/02 03:53:52;;;;;;;9.60;7.83;;;14.70;99.60;;;;;;5133973;27;20500;-68
2021/07/02 03:56:22;;;;;;;10.90;8.73;;;14.70;99.80;;;;;;5125083;27;20430;-68
2021/07/02 03:58:49;;;;;;;10.13;8.00;;;14.80;99.90;;;;;;5113356;28;20434;-68
2021/07/02 04:01:16;;;;;;;11.43;9.23;;;14.80;99.90;;;;;;5120275;27;20533;-68
2021/07/02 04:03:47;;;;;;;12.57;9.30;;;14.80;99.90;;;;;;5134007;27;20429;-69
2021/07/02 04:06:14;;;;;;;11.83;9.53;;;14.80;99.80;;;;;;5126341;27;20438;-69
2021/07/02 04:08:41;;;;;;;9.80;8.80;;;14.90;99.90;;;;;;5113412;28;20430;-69
2021/07/02 04:11:08;;;;;;;9.73;7.73;;;14.90;99.90;;;;;;5122265;27;20429;-68
2021/07/02 04:13:37;;;;;;;10.20;8.00;;;15.00;99.70;;;;;;5133824;27;20553;-69
2021/07/02 04:16:05;;;;;;;8.60;7.20;;;15.00;99.50;;;;;;5125025;27;20512;-68
2021/07/02 04:18:32;;;;;;;12.20;7.83;;;15.00;99.10;;;;;;5113053;28;20908;-68
2021/07/02 04:20:59;;;;;;;9.63;8.00;;;15.00;99.20;;;;;;5122672;27;20472;-68
2021/07/02 04:23:26;;;;;;;8.80;7.27;;;15.00;99.30;;;;;;5140712;27;20429;-68
2021/07/02 04:25:55;;;;;;;12.80;8.50;;;15.00;99.20;;;;;;5133366;27;20438;-68
2021/07/02 04:28:22;;;;;;;11.33;8.87;;;14.90;99.10;;;;;;5119818;28;20448;-68
2021/07/02 04:30:50;;;;;;;11.90;8.30;;;14.90;99.10;;;;;;5124923;27;20490;-70
2021/07/02 04:33:19;;;;;;;9.00;7.80;;;14.90;99.10;;;;;;5138715;27;20444;-70
2021/07/02 04:35:45;;;;;;;11.77;9.40;;;14.90;99.10;;;;;;5124917;27;20787;-70
2021/07/02 04:38:12;;;;;;;10.17;7.90;;;14.90;99.30;;;;;;5139999;27;20436;-71
2021/07/02 04:40:39;;;;;;;12.13;7.70;;;14.90;99.50;;;;;;5119549;27;20484;-69
2021/07/02 04:43:06;;;;;;;11.00;6.73;;;14.90;99.60;;;;;;5119757;28;20449;-69
2021/07/02 04:45:33;;;;;;;8.87;6.87;;;14.90;99.60;;;;;;5122752;27;20437;-69
2021/07/02 04:48:02;;;;;;;10.93;8.00;;;14.90;99.60;;;;;;5132401;27;20513;-70
2021/07/02 04:50:29;;;;;;;10.97;7.20;;;15.00;99.30;;;;;;5114815;27;20952;-69
2021/07/02 04:52:57;;;;;;;7.90;6.70;;;15.00;99.20;;;;;;5117568;28;20426;-70
2021/07/02 04:55:27;;;;;;;7.90;6.63;;;15.00;99.20;;;;;;5116939;27;20428;-71
2021/07/02 04:57:57;;;;;;;10.47;7.47;;;14.90;99.20;;;;;;5121382;27;20438;-69
2021/07/02 05:00:26;;;;;;;10.33;6.80;;;14.90;99.50;;;;;;5117118;28;20524;-69
2021/07/02 05:02:53;;;;;;;9.97;7.00;;;15.00;99.50;;;;;;5117344;28;20426;-71
2021/07/02 05:05:23;;;;;;;11.80;9.27;;;15.00;99.40;;;;;;5104132;28;20443;-69
2021/07/02 05:07:51;;;;;;;11.03;8.57;;;15.10;99.70;;;;;;5117455;28;20814;-68
2021/07/02 05:10:22;;;;;;;11.47;8.37;;;15.20;99.40;;;;;;5117671;28;20441;-71
2021/07/02 05:12:51;;;;;;;12.03;8.90;;;15.40;99.70;;;;;;5113891;28;20542;-70
2021/07/02 05:15:19;;;;;;;15.50;9.70;;;15.50;99.10;;;;;;5117374;28;20449;-70
2021/07/02 05:17:51;;;;;;;12.63;10.50;;;15.50;99.00;;;;;;5117542;28;20974;-71
2021/07/02 05:20:19;;;;;;;10.53;7.67;;;15.60;99.10;;;;;;5113580;28;20477;-70
2021/07/02 05:22:47;;;;;;;11.83;8.90;;;15.70;99.20;;;;;;5117174;27;20507;-70
2021/07/02 05:25:18;;;;;;;11.13;9.13;;;15.80;99.40;;;;;;5117683;27;20434;-69
2021/07/02 05:27:45;;;;;;;13.07;8.97;;;15.90;99.30;;;;;;5113363;28;20525;-70
2021/07/02 05:30:14;;;;;;;9.40;7.73;;;16.10;99.10;;;;;;5118307;27;20461;-69
2021/07/02 05:32:41;;;;;;;13.73;8.20;;;16.20;98.40;;;;;;5115084;27;20518;-69
2021/07/02 05:35:09;;;;;;;9.93;7.43;;;16.30;97.70;;;;;;5114596;27;20969;-71
2021/07/02 05:37:43;;;;;;;7.90;7.07;;;16.30;97.40;;;;;;5116852;27;20435;-70
2021/07/02 05:40:14;;;;;;;11.30;8.33;;;16.30;97.60;;;;;;5112812;27;20437;-69
2021/07/02 05:42:42;;;;;;;11.53;8.47;;;16.40;97.60;;;;;;5113118;28;20446;-69
2021/07/02 05:45:14;;;;;;;11.23;10.00;;;16.40;97.40;;;;;;5109309;28;20438;-70
2021/07/02 05:47:48;;;;;;;10.67;8.67;;;16.40;97.60;;;;;;5115966;27;20435;-70
2021/07/02 05:50:15;;;;;;;11.10;9.03;;;16.50;97.70;;;;;;5109930;28;20426;-70
2021/07/02 05:52:42;;;;;;;10.63;8.53;;;16.70;98.10;;;;;;5113605;28;20442;-69
2021/07/02 05:55:12;;;;;;;10.57;8.00;;;16.90;98.20;;;;;;5114919;27;20458;-69
2021/07/02 05:57:42;;;;;;;8.77;7.23;;;17.00;98.60;;;;;;5114761;27;20557;-69
2021/07/02 06:00:12;;;;;;;11.77;6.77;;;16.90;97.20;;;;;;5113775;27;21693;-69
2021/07/02 06:02:39;;;;;;;9.50;7.00;;;16.90;97.40;;;;;;5117955;27;20430;-73
2021/07/02 06:05:07;;;;;;;12.50;7.33;;;17.00;97.40;;;;;;5113511;28;20462;-70
2021/07/02 06:07:46;;;;;;;8.23;7.17;;;17.00;97.40;;;;;;5116334;27;20478;-70
2021/07/02 06:10:15;;;;;;;9.43;8.00;;;17.00;97.50;;;;;;5102000;27;20532;-70
2021/07/02 06:12:50;;;;;;;11.13;9.90;;;17.10;97.50;;;;;;5106639;27;20486;-74
2021/07/02 06:15:18;;;;;;;8.40;7.50;;;17.10;97.60;;;;;;5109827;28;20472;-69
2021/07/02 06:17:47;;;;;;;9.90;7.90;;;17.10;97.60;;;;;;5110780;27;20434;-71
2021/07/02 06:20:16;;;;;;;8.00;7.20;;;17.20;97.60;;;;;;5120554;27;20487;-70
2021/07/02 06:22:43;;;;;;;9.03;6.83;;;17.20;97.40;;;;;;5114931;27;20898;-70
2021/07/02 06:25:12;;;;;;;7.40;6.50;;;17.30;97.20;;;;;;5115018;28;20498;-70
2021/07/02 06:27:41;;;;;;;9.30;6.30;;;17.30;97.10;;;;;;5123279;27;20516;-70
2021/07/02 06:30:09;;;;;;;10.13;6.40;;;17.40;97.00;;;;;;5135565;27;20494;-70
2021/07/02 06:32:36;;;;;;;8.73;6.70;;;17.40;96.60;;;;;;5113605;27;20442;-70
2021/07/02 06:35:04;;;;;;;8.43;7.03;;;17.40;96.40;;;;;;5126406;27;20430;-70
2021/07/02 06:37:31;;;;;;;10.10;7.30;;;17.60;96.50;;;;;;5118101;27;20434;-69
2021/07/02 06:39:59;;;;;;;8.23;6.53;;;17.70;97.00;;;;;;5113089;27;20454;-70
2021/07/02 06:42:26;;;;;;;8.40;6.20;;;18.00;97.10;;;;;;5113545;27;20501;-70
2021/07/02 06:44:55;;;;;;;7.60;5.67;;;18.10;96.70;;;;;;5112478;28;20521;-70
2021/07/02 06:47:21;;;;;;;6.93;6.13;;;18.10;95.30;;;;;;5113624;28;20522;-69
2021/07/02 06:49:50;;;;;;;11.97;7.37;;;18.10;95.00;;;;;;5113507;28;20521;-69
2021/07/02 06:52:17;;;;;;;8.00;6.20;;;18.10;95.00;;;;;;5110484;27;20473;-69
2021/07/02 06:54:44;;;;;;;9.10;6.93;;;18.20;95.30;;;;;;5116395;27;20529;-69
2021/07/02 06:57:16;;;;;;;9.00;6.80;;;18.40;95.70;;;;;;5112093;28;20912;-69
2021/07/02 06:59:44;;;;;;;9.50;6.90;;;18.80;96.20;;;;;;5112291;28;20442;-70
2021/07/02 07:02:15;;;;;;;9.73;6.33;;;19.10;95.90;;;;;;5112108;27;20475;-71
2021/07/02 07:04:42;;;;;;;9.83;6.70;;;19.40;95.20;;;;;;5111278;28;20434;-69
2021/07/02 07:07:11;;;;;;;9.97;6.63;;;19.50;94.10;;;;;;5112220;27;20426;-72
2021/07/02 07:09:39;;;;;;;8.07;6.23;;;19.60;94.00;;;;;;5110026;28;20458;-70
2021/07/02 07:12:06;;;;;;;8.37;6.10;;;19.60;92.60;;;;;;5113492;28;20778;-69
2021/07/02 07:14:34;;;;;;;11.20;6.70;;;19.60;92.70;;;;;;5097227;28;20550;-69
2021/07/02 07:17:10;;;;;;;7.20;6.10;;;19.70;92.80;;;;;;5098536;28;20522;-69
2021/07/02 07:19:38;;;;;;;9.13;6.30;;;19.90;92.90;;;;;;5114217;28;20444;-70
2021/07/02 07:22:05;;;;;;;9.13;7.57;;;20.10;93.50;;;;;;5118865;27;20567;-70
2021/07/02 07:24:32;;;;;;;7.40;5.73;;;20.20;92.70;;;;;;5134586;27;20439;-72
2021/07/02 07:26:59;;;;;;;8.37;6.03;;;20.50;91.60;;;;;;5130973;27;20431;-70
2021/07/02 07:29:26;;;;;;;11.10;6.00;;;20.70;91.20;;;;;;5120060;27;20469;-70
2021/07/02 07:31:55;;;;;;;8.80;6.60;;;20.80;90.20;;;;;;5131795;27;20557;-70
2021/07/02 07:34:31;;;;;;;8.90;6.20;;;20.90;88.80;;;;;;5114141;28;20434;-69
2021/07/02 07:37:02;;;;;;;7.53;5.80;;;20.90;89.90;;;;;;5113938;28;20478;-70
2021/07/02 07:39:29;;;;;;;7.40;5.20;;;21.00;88.20;;;;;;5113931;28;20782;-70
2021/07/02 07:41:56;;;;;;;7.80;5.43;;;21.00;87.90;;;;;;5113643;27;20498;-70
2021/07/02 07:44:23;;;;;;;10.07;5.70;;;21.10;86.00;;;;;;5116135;27;20517;-70
2021/07/02 07:46:56;;;;;;;5.90;4.60;;;21.20;83.60;;;;;;5120392;27;20472;-71
2021/07/02 07:49:23;;;;;;;6.37;5.23;;;21.40;82.90;;;;;;5112981;28;20795;-70
2021/07/02 07:51:55;;;;;;;7.00;5.83;;;21.60;81.40;;;;;;5113280;28;21000;-70
2021/07/02 07:54:23;;;;;;;8.50;6.27;;;21.70;77.90;;;;;;5109242;28;20453;-70
2021/07/02 07:56:53;;;;;;;6.90;5.03;;;21.90;77.70;;;;;;5111527;28;20752;-70
2021/07/02 07:59:21;;;;;;;6.73;5.20;;;22.00;77.70;;;;;;5112581;28;20449;-70
2021/07/02 08:01:52;;;;;;;7.00;5.40;;;22.10;74.60;;;;;;5111081;28;20481;-71
2021/07/02 08:04:21;;;;;;;6.53;5.37;;;22.20;74.00;;;;;;5105439;28;20824;-71
2021/07/02 08:06:52;;;;;;;7.03;4.67;;;22.40;75.30;;;;;;5116777;27;20524;-70
2021/07/02 08:09:30;;;;;;;7.63;5.20;;;22.60;75.00;;;;;;5111341;28;20462;-69
2021/07/02 08:12:27;;;;;;;7.83;6.37;;;22.70;72.00;;;;;;5112364;28;20430;-70
2021/07/02 08:14:54;;;;;;;10.00;6.47;;;22.70;72.60;;;;;;5109216;28;20458;-70
2021/07/02 08:17:23;;;;;;;9.00;6.97;;;22.80;70.10;;;;;;5112132;28;20462;-69
2021/07/02 08:19:50;;;;;;;6.70;5.60;;;22.80;68.80;;;;;;5108184;28;20923;-69
2021/07/02 08:22:17;;;;;;;11.23;6.60;;;22.90;71.00;;;;;;5113706;28;20859;-69
2021/07/02 08:24:49;;;;;;;6.93;5.73;;;23.10;71.70;;;;;;5113743;28;20867;-69
2021/07/02 08:29:22;;;;;;;6.23;5.07;;;23.10;69.90;;;;;;5116698;28;20466;-69
2021/07/02 08:30:17;;;;;;;6.17;4.60;;;23.20;67.70;;;;;;5121503;28;20460;-70
2021/07/02 08:32:47;;;;;;;10.23;6.97;;;23.30;69.10;;;;;;5120634;28;20422;-69
2021/07/02 08:35:15;;;;;;;12.50;8.17;;;23.40;67.50;;;;;;5116383;28;20628;-69
2021/07/02 08:37:45;;;;;;;7.10;5.87;;;23.40;65.80;;;;;;5113462;28;20470;-69
2021/07/02 08:40:16;;;;;;;6.57;4.30;;;23.50;65.80;;;;;;5112758;28;20469;-69
2021/07/02 08:42:46;;;;;;;7.40;5.03;;;23.50;65.20;;;;;;5116693;28;20482;-69
2021/07/02 08:45:19;;;;;;;9.33;5.67;;;23.60;65.30;;;;;;5115842;28;20442;-69
2021/07/02 08:47:51;;;;;;;6.17;5.10;;;23.70;66.00;;;;;;5116826;28;20445;-69
2021/07/02 08:50:23;;;;;;;7.13;5.57;;;23.80;62.90;;;;;;5111532;28;20916;-69
2021/07/02 08:52:52;;;;;;;6.77;4.83;;;23.90;63.70;;;;;;5116872;28;20430;-69
2021/07/02 08:55:32;;;;;;;5.93;4.43;;;23.90;63.20;;;;;;5110889;28;20439;-70
2021/07/02 08:58:03;;;;;;;5.10;4.23;;;23.90;63.80;;;;;;5113461;28;20434;-69
2021/07/02 09:00:36;;;;;;;7.10;5.20;;;24.00;60.90;;;;;;5112129;28;20431;-69
2021/07/02 09:03:29;;;;;;;13.17;6.77;;;24.00;59.00;;;;;;5112738;28;20539;-69
2021/07/02 09:06:11;;;;;;;8.10;6.47;;;23.80;59.80;;;;;;5110307;28;20809;-69
2021/07/02 09:08:38;;;;;;;7.53;5.60;;;23.70;60.00;;;;;;5111384;27;20499;-70
2021/07/02 09:11:24;;;;;;;6.07;4.80;;;23.80;61.60;;;;;;5120286;27;20857;-69
2021/07/02 09:13:51;;;;;;;5.90;4.53;;;24.10;64.10;;;;;;5117139;27;20467;-69
2021/07/02 09:16:24;;;;;;;6.90;5.20;;;24.30;62.40;;;;;;5119971;27;20454;-69
2021/07/02 09:18:58;;;;;;;7.90;5.23;;;24.30;61.10;;;;;;5119187;27;20521;-69
2021/07/02 09:21:32;;;;;;;7.10;4.93;;;24.40;59.70;;;;;;5118521;27;20802;-69
2021/07/02 09:24:00;;;;;;;6.67;5.30;;;24.50;59.70;;;;;;5119114;27;20524;-70
2021/07/02 09:26:40;;;;;;;9.67;5.73;;;24.60;59.50;;;;;;5119223;27;20438;-70
2021/07/02 09:29:21;;;;;;;6.10;5.17;;;24.70;59.00;;;;;;5117293;27;20441;-69
2021/07/02 09:31:58;;;;;;;6.57;5.67;;;24.80;59.50;;;;;;5118127;27;20453;-69
2021/07/02 09:34:50;;;;;;;5.50;4.67;;;24.80;58.00;;;;;;5118409;27;20478;-70
2021/07/02 09:37:26;;;;;;;6.40;5.43;;;24.80;58.10;;;;;;5118588;27;20430;-69
2021/07/02 09:39:57;;;;;;;9.73;6.20;;;24.80;58.10;;;;;;5117682;27;20431;-70
2021/07/02 09:42:32;;;;;;;7.37;5.57;;;24.70;57.70;;;;;;5119723;27;20573;-69
2021/07/02 09:45:17;;;;;;;7.67;5.17;;;24.70;57.90;;;;;;5119986;27;20525;-69
2021/07/02 09:47:55;;;;;;;8.00;5.73;;;24.70;57.00;;;;;;5119615;27;20439;-70
2021/07/02 09:50:25;;;;;;;9.07;5.80;;;24.70;56.10;;;;;;5120568;27;20461;-69
2021/07/02 09:52:59;;;;;;;7.30;5.20;;;24.70;56.70;;;;;;5120894;27;20433;-69
2021/07/02 09:55:28;;;;;;;7.07;4.80;;;24.60;55.60;;;;;;5118619;27;20464;-69
2021/07/02 09:58:08;;;;;;;7.30;5.13;;;24.70;57.40;;;;;;5121982;27;20451;-70
2021/07/02 10:00:42;;;;;;;6.27;5.10;;;24.90;57.40;;;;;;5115331;27;20470;-69
2021/07/02 10:03:09;;;;;;;8.80;4.57;;;25.10;57.80;;;;;;5116001;27;20575;-70
2021/07/02 10:05:48;;;;;;;6.13;4.70;;;25.30;59.00;;;;;;5122431;27;20869;-70
2021/07/02 10:08:18;;;;;;;7.37;5.23;;;25.70;57.60;;;;;;5118557;27;20530;-69
2021/07/02 10:10:59;;;;;;;5.30;4.27;;;25.90;56.30;;;;;;5119201;27;21027;-69
2021/07/02 10:13:29;;;;;;;7.30;5.00;;;26.10;56.30;;;;;;5116733;27;20464;-70
2021/07/02 10:16:05;;;;;;;5.33;4.37;;;26.30;55.50;;;;;;5113984;27;20880;-70
2021/07/02 10:18:37;;;;;;;5.53;4.53;;;26.50;54.40;;;;;;5113770;27;20438;-70
2021/07/02 10:21:06;;;;;;;7.20;4.70;;;26.50;54.20;;;;;;5117184;27;20429;-70
2021/07/02 10:23:34;;;;;;;6.40;5.07;;;26.60;52.60;;;;;;5114856;27;20478;-70
2021/07/02 10:26:07;;;;;;;6.00;5.00;;;26.50;52.50;;;;;;5113983;27;20470;-70
2021/07/02 10:28:39;;;;;;;6.70;5.60;;;26.40;52.10;;;;;;5113867;27;20441;-69
2021/07/02 10:31:12;;;;;;;6.23;4.50;;;26.10;51.60;;;;;;5110481;27;20771;-69
2021/07/02 10:33:42;;;;;;;5.23;4.60;;;25.90;52.50;;;;;;5115537;27;20438;-70
2021/07/02 10:36:12;;;;;;;5.47;4.60;;;25.90;53.80;;;;;;5113413;28;21016;-70
2021/07/02 10:38:43;;;;;;;9.13;5.03;;;25.70;52.60;;;;;;5113157;27;20433;-70
2021/07/02 10:41:12;;;;;;;6.03;5.40;;;25.60;53.70;;;;;;5113424;27;20436;-69
2021/07/02 10:44:07;;;;;;;6.70;5.80;;;25.50;53.90;;;;;;5113768;27;20576;-70
2021/07/02 10:46:34;;;;;;;5.93;4.63;;;25.40;54.90;;;;;;5112685;28;20460;-70
2021/07/02 10:49:03;;;;;;;6.03;5.23;;;25.40;55.30;;;;;;5113347;28;20528;-69
2021/07/02 10:51:54;;;;;;;7.73;4.47;;;25.30;53.60;;;;;;5113311;27;20477;-69
2021/07/02 10:54:38;;;;;;;7.47;4.30;;;25.30;55.50;;;;;;5113662;28;20438;-69
2021/07/02 10:57:14;;;;;;;6.43;5.00;;;25.20;53.90;;;;;;5109342;28;20434;-69
2021/07/02 11:00:08;;;;;;;5.80;4.40;;;25.30;54.90;;;;;;5113455;27;20458;-70
2021/07/02 11:02:39;;;;;;;6.40;5.03;;;25.40;52.90;;;;;;5117620;27;20522;-69
2021/07/02 11:05:31;;;;;;;7.30;5.40;;;25.50;53.90;;;;;;5112974;28;20458;-69
2021/07/02 11:07:59;;;;;;;6.13;4.40;;;25.90;55.50;;;;;;5112770;28;20421;-69
2021/07/02 11:10:53;;;;;;;7.80;4.90;;;26.10;54.30;;;;;;5113377;28;20442;-69
2021/07/02 11:13:20;;;;;;;5.40;4.00;;;26.30;52.90;;;;;;5114189;28;20444;-70
2021/07/02 11:16:04;;;;;;;4.67;4.10;;;26.40;53.40;;;;;;5114508;28;20517;-69
2021/07/02 11:18:40;;;;;;;4.93;4.03;;;26.50;52.50;;;;;;5120549;27;20463;-69
2021/07/02 11:21:15;;;;;;;5.47;3.73;;;26.70;49.80;;;;;;5134916;27;20456;-69
2021/07/02 11:23:43;;;;;;;5.43;4.47;;;26.80;49.90;;;;;;5134646;27;20475;-69
2021/07/02 11:26:13;;;;;;;5.53;4.30;;;26.90;49.90;;;;;;5134866;27;20465;-69
2021/07/02 11:28:54;;;;;;;5.00;4.17;;;27.00;49.30;;;;;;5134666;27;20437;-69
2021/07/02 11:31:38;;;;;;;7.57;4.03;;;27.20;50.90;;;;;;5134176;27;20768;-69
2021/07/02 11:34:13;;;;;;;5.00;4.43;;;27.50;50.20;;;;;;5134822;27;20429;-69
2021/07/02 11:36:43;;;;;;;5.97;3.60;;;27.80;49.30;;;;;;5134624;27;20508;-69
2021/07/02 11:39:18;;;;;;;4.60;3.30;;;27.90;48.80;;;;;;5126612;27;20800;-69
2021/07/02 11:41:45;;;;;;;5.80;3.60;;;28.10;46.80;;;;;;5128225;27;20440;-70
2021/07/02 11:44:19;;;;;;;6.10;3.30;;;28.10;46.60;;;;;;5120433;27;20564;-70
2021/07/02 11:46:57;;;;;;;4.90;3.77;;;28.20;45.00;;;;;;5118204;27;20457;-69
2021/07/02 11:49:24;;;;;;;5.80;4.10;;;28.30;45.10;;;;;;5134181;27;20433;-69
2021/07/02 11:51:56;;;;;;;4.70;3.57;;;28.30;46.20;;;;;;5118689;27;20470;-69
2021/07/02 11:54:23;;;;;;;6.03;4.03;;;28.30;45.10;;;;;;5109885;28;20504;-70
2021/07/02 11:57:01;;;;;;;5.03;4.23;;;28.30;44.60;;;;;;5114514;27;20817;-69
2021/07/02 11:59:33;;;;;;;4.73;4.00;;;28.30;45.00;;;;;;5116235;27;20436;-69
2021/07/02 12:02:14;;;;;;;4.50;3.57;;;28.40;45.30;;;;;;5107335;28;20440;-69
2021/07/02 12:04:41;;;;;;;5.80;3.47;;;28.40;45.10;;;;;;5116264;27;20451;-69
2021/07/02 12:07:08;;;;;;;4.07;3.50;;;28.40;43.10;;;;;;5123229;27;20431;-70
2021/07/02 12:09:42;;;;;;;4.00;3.43;;;28.40;43.30;;;;;;5134241;27;20518;-70
2021/07/02 12:12:20;;;;;;;4.40;3.40;;;28.40;42.30;;;;;;5133634;27;20438;-69
2021/07/02 12:14:47;;;;;;;6.00;4.90;;;28.40;42.50;;;;;;5132702;27;20538;-69
2021/07/02 12:17:18;;;;;;;5.37;3.10;;;28.50;41.70;;;;;;5134233;27;20470;-69
2021/07/02 12:19:45;;;;;;;4.57;3.27;;;28.50;40.60;;;;;;5134284;27;20437;-69
2021/07/02 12:22:14;;;;;;;3.83;2.70;;;28.70;40.60;;;;;;5133917;28;20524;-69
2021/07/02 12:24:43;;;;;;;4.20;3.20;;;28.60;40.00;;;;;;5134227;28;20440;-69
2021/07/02 12:27:16;;;;;;;4.00;2.87;;;28.60;38.30;;;;;;5133998;28;20473;-69
2021/07/02 12:29:44;;;;;;;6.37;3.20;;;28.60;38.70;;;;;;5134124;28;20441;-69
2021/07/02 12:32:15;;;;;;;4.93;3.17;;;28.50;37.20;;;;;;5133995;28;20473;-69
2021/07/02 12:34:44;;;;;;;5.00;2.90;;;28.30;38.00;;;;;;5133897;28;20516;-69
2021/07/02 12:37:13;;;;;;;4.30;3.77;;;28.20;40.30;;;;;;5134100;28;20787;-69
2021/07/02 12:39:42;;;;;;;3.83;3.23;;;28.10;41.80;;;;;;5120302;28;20519;-69
2021/07/02 12:42:14;;;;;;;5.13;3.70;;;28.10;43.10;;;;;;5125191;27;20534;-69
2021/07/02 12:44:44;;;;;;;5.70;3.60;;;27.90;41.10;;;;;;5126146;27;20525;-69
2021/07/02 12:47:12;;;;;;;4.93;3.30;;;27.60;41.10;;;;;;5125582;27;20985;-69
2021/07/02 12:49:45;;;;;;;5.70;4.47;;;27.40;41.50;;;;;;5125564;27;20434;-69
2021/07/02 12:55:08;;;;;;;4.47;3.37;;;27.10;43.80;;;;;;5125525;27;20964;-69
2021/07/02 12:57:41;;;;;;;6.83;3.80;;;26.90;43.20;;;;;;5126272;27;20437;-70
2021/07/02 13:00:10;;;;;;;7.13;4.30;;;26.90;44.90;;;;;;5125959;27;20490;-69
2021/07/02 13:02:39;;;;;;;5.57;3.60;;;26.80;43.80;;;;;;5124955;27;20475;-69